Amsterdam — PBAD — position and weather

sailwx.info

Track history (hours):
 
Tides and Currents Weather Stations Pressure Air Temp Water Temp Dewpoint Dewpoint Depression Visibility Wind Speed Wind Dir Waves Ship Positions

Amsterdam

Operator: Holland America Line

Last reported at 2014-Oct-25 19:00 UTC. Time now 2014-Oct-26 07:45 UTC.
Position N 15°06' E 110°48'.

Type: Ship. MMSI: 244370000.

Wind from 060 at 18 knots

Barometer 1009.0 mb
Air temperature 26.0 ° C
Visibility: greater than 10.8 NM
Water temperature 28.0 ° C

Date/timePositionNaut miles runAvg speedWind from/ knotsBaromVisibWave heightAir tempDewpointWater temp
2014-Oct-25 19:00N 15°06' E 110°48'12814.2 060 / 181009.010.8 26.0 28.0
2014-Oct-25 10:00N 17°00' E 111°48'16216.2 090 / 181012.0 5.4 1.026.025.328.0
2014-Oct-25 00:00N 19°24' E 113°06'18414.8 080 / 301014.010.8 1.028.023.928.0
2014-Oct-24 11:34N 22°18' E 114°12'1 1.4
2014-Oct-24 10:32N 22°18' E 114°10'712.6
2014-Oct-24 10:00N 22°12' E 114°06'712.1 130 / 91015.0 5.4 25.022.228.0
2014-Oct-24 09:26N 22°18' E 114°10'0 0.0
2014-Oct-24 08:32N 22°18' E 114°10'0 0.0
2014-Oct-24 07:32N 22°18' E 114°10'0 0.0
2014-Oct-24 06:32N 22°18' E 114°10'0 0.0
2014-Oct-24 05:26N 22°18' E 114°10'0 0.0
2014-Oct-24 04:32N 22°18' E 114°10'0 0.0
2014-Oct-24 03:26N 22°18' E 114°10'0 0.0
2014-Oct-24 02:26N 22°18' E 114°10'0 0.0
2014-Oct-24 01:32N 22°18' E 114°10'0 0.0
2014-Oct-24 00:26N 22°18' E 114°10'0 0.0
2014-Oct-23 23:26N 22°18' E 114°10'0 0.0
2014-Oct-23 22:32N 22°18' E 114°10'0 0.0
2014-Oct-23 21:26N 22°18' E 114°10'0 0.0
2014-Oct-23 20:26N 22°18' E 114°10'0 0.0
2014-Oct-23 19:32N 22°18' E 114°10'0 0.0
2014-Oct-23 18:32N 22°18' E 114°10'0 0.0
2014-Oct-23 17:20N 22°18' E 114°10'0 0.0
2014-Oct-23 16:20N 22°18' E 114°10'0 0.0
2014-Oct-23 15:32N 22°18' E 114°10'0 0.0
2014-Oct-23 14:32N 22°18' E 114°10'0 0.0
2014-Oct-23 13:32N 22°18' E 114°10'0 0.0
2014-Oct-23 12:32N 22°18' E 114°10'0 0.0
2014-Oct-23 11:26N 22°18' E 114°10'0 0.0
2014-Oct-23 10:26N 22°18' E 114°10'0 0.0
2014-Oct-23 09:32N 22°18' E 114°10'0 0.0
2014-Oct-23 05:32N 22°18' E 114°10'0 0.0
2014-Oct-23 04:32N 22°18' E 114°10'0 0.0
2014-Oct-23 03:32N 22°18' E 114°10'0 0.0
2014-Oct-23 02:26N 22°18' E 114°10'0 0.0
2014-Oct-23 01:14N 22°18' E 114°10'2 0.9
2014-Oct-22 23:32N 22°18' E 114°12'7313.1
2014-Oct-22 18:00N 22°24' E 115°30'8615.3 050 / 221013.0 3.023.0
2014-Oct-22 12:24N 22°56' E 116°56'4 9.1
2014-Oct-22 12:00N 22°54' E 117°00'1125.7 060 / 251017.0 5.4 2.024.022.626.0
2014-Oct-22 11:33N 23°03' E 117°08'5 9.1
2014-Oct-22 11:00N 23°06' E 117°12'1312.6 070 / 261016.0 5.4 2.024.022.626.0
2014-Oct-22 10:00N 23°12' E 117°24'1616.3 050 / 291016.0 5.4 2.024.022.626.0
2014-Oct-22 09:00N 23°24' E 117°36'2618.0 040 / 251016.0 5.4 2.024.022.626.0
2014-Oct-22 07:31N 23°40' E 117°59'1414.9
2014-Oct-22 06:33N 23°47' E 118°13'814.8
2014-Oct-22 06:00N 23°54' E 118°18'715.9 050 / 29 2.2 4.023.0
2014-Oct-22 05:33N 23°57' E 118°25'1514.7
2014-Oct-22 04:33N 24°06' E 118°38'1814.6
2014-Oct-22 03:21N 24°17' E 118°53'1614.8
2014-Oct-22 02:14N 24°27' E 119°07'1014.9
2014-Oct-22 01:33N 24°33' E 119°16'6214.7
2014-Oct-21 21:20N 25°15' E 120°06'5215.7
2014-Oct-21 18:00N 26°00' E 120°36'18814.5 060 / 121009.0 5.4 1.023.0
2014-Oct-21 05:00N 28°42' E 122°24'1416.1 200 / 161013.0 5.4 23.0
2014-Oct-21 04:07N 28°54' E 122°33'914.8
2014-Oct-21 03:30N 29°02' E 122°38'1813.8
2014-Oct-21 02:12N 29°18' E 122°46'1014.5
2014-Oct-21 01:29N 29°28' E 122°51'1414.7
2014-Oct-21 00:31N 29°40' E 122°58'1414.1
2014-Oct-20 23:33N 29°53' E 123°04'1414.2
2014-Oct-20 22:33N 30°06' E 123°10'1514.7
2014-Oct-20 21:33N 30°20' E 123°13'2114.8
2014-Oct-20 20:08N 30°41' E 123°16'914.4
2014-Oct-20 19:32N 30°50' E 123°14'1414.5
2014-Oct-20 18:32N 30°60' E 123°02'1414.6
2014-Oct-20 17:33N 31°05' E 122°46'1514.8
2014-Oct-20 16:32N 31°06' E 122°29'1313.1
2014-Oct-20 15:31N 31°09' E 122°14'1414.8
2014-Oct-20 14:33N 31°15' E 121°59'1513.5
2014-Oct-20 13:27N 31°20' E 121°42'1010.7
2014-Oct-20 12:33N 31°24' E 121°32'3 3.0
2014-Oct-20 11:33N 31°21' E 121°32'5 5.1
2014-Oct-20 10:33N 31°16' E 121°33'3 2.9
2014-Oct-20 09:34N 31°15' E 121°30'0 0.0
2014-Oct-20 08:33N 31°15' E 121°30'0 0.0
2014-Oct-20 07:34N 31°15' E 121°30'0 0.0
2014-Oct-20 06:34N 31°15' E 121°30'1 0.5
2014-Oct-20 05:33N 31°15' E 121°30'1 0.2
2014-Oct-20 02:14N 31°15' E 121°30'0 0.0
2014-Oct-20 00:32N 31°15' E 121°30'0 0.0
2014-Oct-19 23:26N 31°15' E 121°30'0 0.0
2014-Oct-19 22:26N 31°15' E 121°30'0 0.0
2014-Oct-19 21:14N 31°15' E 121°30'0 0.0
2014-Oct-19 20:26N 31°15' E 121°30'0 0.0
2014-Oct-19 19:26N 31°15' E 121°30'0 0.0
2014-Oct-19 18:26N 31°15' E 121°30'0 0.0
2014-Oct-19 17:32N 31°15' E 121°30'0 0.0
2014-Oct-19 16:20N 31°15' E 121°30'0 0.0
2014-Oct-19 15:32N 31°15' E 121°30'0 0.0
2014-Oct-19 14:33N 31°15' E 121°30'0 0.0
2014-Oct-19 13:32N 31°15' E 121°30'0 0.0
2014-Oct-19 12:33N 31°15' E 121°30'0 0.0
2014-Oct-19 10:33N 31°15' E 121°30'0 0.0
2014-Oct-19 09:21N 31°15' E 121°30'0 0.0
2014-Oct-19 08:32N 31°15' E 121°30'0 0.0
2014-Oct-19 07:20N 31°15' E 121°30'0 0.0
2014-Oct-19 06:26N 31°15' E 121°30'0 0.0
2014-Oct-19 05:27N 31°15' E 121°30'0 0.0
2014-Oct-19 04:15N 31°15' E 121°30'0 0.0
2014-Oct-19 03:33N 31°15' E 121°30'0 0.0
2014-Oct-19 02:32N 31°15' E 121°30'0 0.0
2014-Oct-19 01:21N 31°15' E 121°30'0 0.0
2014-Oct-19 00:08N 31°15' E 121°30'0 0.0
2014-Oct-18 23:33N 31°15' E 121°30'0 0.0
2014-Oct-18 22:32N 31°15' E 121°30'0 0.0
2014-Oct-18 21:33N 31°15' E 121°30'0 0.0
2014-Oct-18 20:32N 31°15' E 121°30'0 0.0
2014-Oct-18 19:20N 31°15' E 121°30'0 0.0
2014-Oct-18 18:26N 31°15' E 121°30'0 0.0
2014-Oct-18 17:32N 31°15' E 121°30'0 0.0
2014-Oct-18 16:20N 31°15' E 121°30'0 0.0
2014-Oct-18 15:33N 31°15' E 121°30'0 0.0
2014-Oct-18 14:26N 31°15' E 121°30'0 0.0
2014-Oct-18 13:27N 31°15' E 121°30'0 0.0
2014-Oct-18 12:27N 31°15' E 121°30'0 0.0
2014-Oct-18 11:26N 31°15' E 121°30'0 0.0
2014-Oct-18 10:32N 31°15' E 121°30'0 0.0
2014-Oct-18 09:32N 31°15' E 121°30'0 0.0
2014-Oct-18 08:33N 31°15' E 121°30'0 0.0
2014-Oct-18 07:27N 31°15' E 121°30'0 0.0
2014-Oct-18 06:32N 31°15' E 121°30'0 0.0
2014-Oct-18 05:26N 31°15' E 121°30'0 0.0
2014-Oct-18 04:33N 31°15' E 121°30'0 0.0
2014-Oct-18 02:33N 31°15' E 121°30'0 0.0
2014-Oct-18 01:33N 31°15' E 121°30'0 0.0
2014-Oct-18 00:33N 31°15' E 121°30'0 0.0
2014-Oct-17 23:32N 31°15' E 121°30'0 0.0
2014-Oct-17 22:21N 31°15' E 121°30'0 0.0
2014-Oct-17 21:26N 31°15' E 121°30'0 0.0
2014-Oct-17 20:33N 31°15' E 121°30'0 0.0
2014-Oct-17 19:33N 31°15' E 121°30'0 0.0
2014-Oct-17 18:26N 31°15' E 121°30'0 0.0
2014-Oct-17 17:33N 31°15' E 121°30'0 0.0
2014-Oct-17 15:08N 31°15' E 121°30'0 0.0
2014-Oct-17 14:32N 31°15' E 121°30'1 1.1
2014-Oct-17 13:33N 31°15' E 121°31'6 5.8
2014-Oct-17 12:33N 31°21' E 121°32'3 3.3
2014-Oct-17 11:33N 31°24' E 121°33'7 6.8
2014-Oct-17 10:33N 31°21' E 121°41'1110.5
2014-Oct-17 09:30N 31°16' E 121°52'4 8.5
2014-Oct-17 09:00N 31°12' E 121°54'818.4 130 / 71021.0 5.4 21.014.722.0
2014-Oct-17 08:33N 31°14' E 122°03'37 8.6
2014-Oct-17 04:16N 31°41' E 122°33'9817.0
2014-Oct-16 22:29N 33°18' E 122°44'1617.1
2014-Oct-16 21:33N 33°34' E 122°39'1717.3
2014-Oct-16 20:33N 33°51' E 122°37'5416.8
2014-Oct-16 17:20N 34°42' E 122°13'3717.1
2014-Oct-16 15:10N 35°07' E 121°40'1117.3
2014-Oct-16 14:33N 35°14' E 121°31'4017.2
2014-Oct-16 12:14N 35°42' E 120°55'623.8
2014-Oct-16 12:00N 35°42' E 120°48'1312.9 230 / 151023.0 5.4 19.014.221.0
2014-Oct-16 11:00N 35°54' E 120°42'   210 / 151023.0 5.4 18.0 9.221.0
Track history (hours):
 
Tides and Currents Weather Stations Pressure Air Temp Water Temp Dewpoint Dewpoint Depression Visibility Wind Speed Wind Dir Waves Ship Positions

Amsterdam

Operator: Holland America Line

Last reported at 2014-Oct-25 19:00 UTC. Time now 2014-Oct-26 07:45 UTC.
Position N 15°06' E 110°48'.

Type: Ship. MMSI: 244370000.

Wind from 060 at 18 knots

Barometer 1009.0 mb
Air temperature 26.0 ° C
Visibility: greater than 10.8 NM
Water temperature 28.0 ° C

Date/timePositionNaut miles runAvg speedWind from/ knotsBaromVisibWave heightAir tempDewpointWater temp
2014-Oct-25 19:00N 15°06' E 110°48'12814.2 060 / 181009.010.8 26.0 28.0
2014-Oct-25 10:00N 17°00' E 111°48'16216.2 090 / 181012.0 5.4 1.026.025.328.0
2014-Oct-25 00:00N 19°24' E 113°06'18414.8 080 / 301014.010.8 1.028.023.928.0
2014-Oct-24 11:34N 22°18' E 114°12'1 1.4
2014-Oct-24 10:32N 22°18' E 114°10'712.6
2014-Oct-24 10:00N 22°12' E 114°06'712.1 130 / 91015.0 5.4 25.022.228.0
2014-Oct-24 09:26N 22°18' E 114°10'0 0.0
2014-Oct-24 08:32N 22°18' E 114°10'0 0.0
2014-Oct-24 07:32N 22°18' E 114°10'0 0.0
2014-Oct-24 06:32N 22°18' E 114°10'0 0.0
2014-Oct-24 05:26N 22°18' E 114°10'0 0.0
2014-Oct-24 04:32N 22°18' E 114°10'0 0.0
2014-Oct-24 03:26N 22°18' E 114°10'0 0.0
2014-Oct-24 02:26N 22°18' E 114°10'0 0.0
2014-Oct-24 01:32N 22°18' E 114°10'0 0.0
2014-Oct-24 00:26N 22°18' E 114°10'0 0.0
2014-Oct-23 23:26N 22°18' E 114°10'0 0.0
2014-Oct-23 22:32N 22°18' E 114°10'0 0.0
2014-Oct-23 21:26N 22°18' E 114°10'0 0.0
2014-Oct-23 20:26N 22°18' E 114°10'0 0.0
2014-Oct-23 19:32N 22°18' E 114°10'0 0.0
2014-Oct-23 18:32N 22°18' E 114°10'0 0.0
2014-Oct-23 17:20N 22°18' E 114°10'0 0.0
2014-Oct-23 16:20N 22°18' E 114°10'0 0.0
2014-Oct-23 15:32N 22°18' E 114°10'0 0.0
2014-Oct-23 14:32N 22°18' E 114°10'0 0.0
2014-Oct-23 13:32N 22°18' E 114°10'0 0.0
2014-Oct-23 12:32N 22°18' E 114°10'0 0.0
2014-Oct-23 11:26N 22°18' E 114°10'0 0.0
2014-Oct-23 10:26N 22°18' E 114°10'0 0.0
2014-Oct-23 09:32N 22°18' E 114°10'0 0.0
2014-Oct-23 05:32N 22°18' E 114°10'0 0.0
2014-Oct-23 04:32N 22°18' E 114°10'0 0.0
2014-Oct-23 03:32N 22°18' E 114°10'0 0.0
2014-Oct-23 02:26N 22°18' E 114°10'0 0.0
2014-Oct-23 01:14N 22°18' E 114°10'2 0.9
2014-Oct-22 23:32N 22°18' E 114°12'7313.1
2014-Oct-22 18:00N 22°24' E 115°30'8615.3 050 / 221013.0 3.023.0
2014-Oct-22 12:24N 22°56' E 116°56'4 9.1
2014-Oct-22 12:00N 22°54' E 117°00'1125.7 060 / 251017.0 5.4 2.024.022.626.0
2014-Oct-22 11:33N 23°03' E 117°08'5 9.1
2014-Oct-22 11:00N 23°06' E 117°12'1312.6 070 / 261016.0 5.4 2.024.022.626.0
2014-Oct-22 10:00N 23°12' E 117°24'1616.3 050 / 291016.0 5.4 2.024.022.626.0
2014-Oct-22 09:00N 23°24' E 117°36'2618.0 040 / 251016.0 5.4 2.024.022.626.0
2014-Oct-22 07:31N 23°40' E 117°59'1414.9
2014-Oct-22 06:33N 23°47' E 118°13'814.8
2014-Oct-22 06:00N 23°54' E 118°18'715.9 050 / 29 2.2 4.023.0
2014-Oct-22 05:33N 23°57' E 118°25'1514.7
2014-Oct-22 04:33N 24°06' E 118°38'1814.6
2014-Oct-22 03:21N 24°17' E 118°53'1614.8
2014-Oct-22 02:14N 24°27' E 119°07'1014.9
2014-Oct-22 01:33N 24°33' E 119°16'6214.7
2014-Oct-21 21:20N 25°15' E 120°06'5215.7
2014-Oct-21 18:00N 26°00' E 120°36'18814.5 060 / 121009.0 5.4 1.023.0
2014-Oct-21 05:00N 28°42' E 122°24'1416.1 200 / 161013.0 5.4 23.0
2014-Oct-21 04:07N 28°54' E 122°33'914.8
2014-Oct-21 03:30N 29°02' E 122°38'1813.8
2014-Oct-21 02:12N 29°18' E 122°46'1014.5
2014-Oct-21 01:29N 29°28' E 122°51'1414.7
2014-Oct-21 00:31N 29°40' E 122°58'1414.1
2014-Oct-20 23:33N 29°53' E 123°04'1414.2
2014-Oct-20 22:33N 30°06' E 123°10'1514.7
2014-Oct-20 21:33N 30°20' E 123°13'2114.8
2014-Oct-20 20:08N 30°41' E 123°16'914.4
2014-Oct-20 19:32N 30°50' E 123°14'1414.5
2014-Oct-20 18:32N 30°60' E 123°02'1414.6
2014-Oct-20 17:33N 31°05' E 122°46'1514.8
2014-Oct-20 16:32N 31°06' E 122°29'1313.1
2014-Oct-20 15:31N 31°09' E 122°14'1414.8
2014-Oct-20 14:33N 31°15' E 121°59'1513.5
2014-Oct-20 13:27N 31°20' E 121°42'1010.7
2014-Oct-20 12:33N 31°24' E 121°32'3 3.0
2014-Oct-20 11:33N 31°21' E 121°32'5 5.1
2014-Oct-20 10:33N 31°16' E 121°33'3 2.9
2014-Oct-20 09:34N 31°15' E 121°30'0 0.0
2014-Oct-20 08:33N 31°15' E 121°30'0 0.0
2014-Oct-20 07:34N 31°15' E 121°30'0 0.0
2014-Oct-20 06:34N 31°15' E 121°30'1 0.5
2014-Oct-20 05:33N 31°15' E 121°30'1 0.2
2014-Oct-20 02:14N 31°15' E 121°30'0 0.0
2014-Oct-20 00:32N 31°15' E 121°30'0 0.0
2014-Oct-19 23:26N 31°15' E 121°30'0 0.0
2014-Oct-19 22:26N 31°15' E 121°30'0 0.0
2014-Oct-19 21:14N 31°15' E 121°30'0 0.0
2014-Oct-19 20:26N 31°15' E 121°30'0 0.0
2014-Oct-19 19:26N 31°15' E 121°30'0 0.0
2014-Oct-19 18:26N 31°15' E 121°30'0 0.0
2014-Oct-19 17:32N 31°15' E 121°30'0 0.0
2014-Oct-19 16:20N 31°15' E 121°30'0 0.0
2014-Oct-19 15:32N 31°15' E 121°30'0 0.0
2014-Oct-19 14:33N 31°15' E 121°30'0 0.0
2014-Oct-19 13:32N 31°15' E 121°30'0 0.0
2014-Oct-19 12:33N 31°15' E 121°30'0 0.0
2014-Oct-19 10:33N 31°15' E 121°30'0 0.0
2014-Oct-19 09:21N 31°15' E 121°30'0 0.0
2014-Oct-19 08:32N 31°15' E 121°30'0 0.0
2014-Oct-19 07:20N 31°15' E 121°30'0 0.0
2014-Oct-19 06:26N 31°15' E 121°30'0 0.0
2014-Oct-19 05:27N 31°15' E 121°30'0 0.0
2014-Oct-19 04:15N 31°15' E 121°30'0 0.0
2014-Oct-19 03:33N 31°15' E 121°30'0 0.0
2014-Oct-19 02:32N 31°15' E 121°30'0 0.0
2014-Oct-19 01:21N 31°15' E 121°30'0 0.0
2014-Oct-19 00:08N 31°15' E 121°30'0 0.0
2014-Oct-18 23:33N 31°15' E 121°30'0 0.0
2014-Oct-18 22:32N 31°15' E 121°30'0 0.0
2014-Oct-18 21:33N 31°15' E 121°30'0 0.0
2014-Oct-18 20:32N 31°15' E 121°30'0 0.0
2014-Oct-18 19:20N 31°15' E 121°30'0 0.0
2014-Oct-18 18:26N 31°15' E 121°30'0 0.0
2014-Oct-18 17:32N 31°15' E 121°30'0 0.0
2014-Oct-18 16:20N 31°15' E 121°30'0 0.0
2014-Oct-18 15:33N 31°15' E 121°30'0 0.0
2014-Oct-18 14:26N 31°15' E 121°30'0 0.0
2014-Oct-18 13:27N 31°15' E 121°30'0 0.0
2014-Oct-18 12:27N 31°15' E 121°30'0 0.0
2014-Oct-18 11:26N 31°15' E 121°30'0 0.0
2014-Oct-18 10:32N 31°15' E 121°30'0 0.0
2014-Oct-18 09:32N 31°15' E 121°30'0 0.0
2014-Oct-18 08:33N 31°15' E 121°30'0 0.0
2014-Oct-18 07:27N 31°15' E 121°30'0 0.0
2014-Oct-18 06:32N 31°15' E 121°30'0 0.0
2014-Oct-18 05:26N 31°15' E 121°30'0 0.0
2014-Oct-18 04:33N 31°15' E 121°30'0 0.0
2014-Oct-18 02:33N 31°15' E 121°30'0 0.0
2014-Oct-18 01:33N 31°15' E 121°30'0 0.0
2014-Oct-18 00:33N 31°15' E 121°30'0 0.0
2014-Oct-17 23:32N 31°15' E 121°30'0 0.0
2014-Oct-17 22:21N 31°15' E 121°30'0 0.0
2014-Oct-17 21:26N 31°15' E 121°30'0 0.0
2014-Oct-17 20:33N 31°15' E 121°30'0 0.0
2014-Oct-17 19:33N 31°15' E 121°30'0 0.0
2014-Oct-17 18:26N 31°15' E 121°30'0 0.0
2014-Oct-17 17:33N 31°15' E 121°30'0 0.0
2014-Oct-17 15:08N 31°15' E 121°30'0 0.0
2014-Oct-17 14:32N 31°15' E 121°30'1 1.1
2014-Oct-17 13:33N 31°15' E 121°31'6 5.8
2014-Oct-17 12:33N 31°21' E 121°32'3 3.3
2014-Oct-17 11:33N 31°24' E 121°33'7 6.8
2014-Oct-17 10:33N 31°21' E 121°41'1110.5
2014-Oct-17 09:30N 31°16' E 121°52'4 8.5
2014-Oct-17 09:00N 31°12' E 121°54'818.4 130 / 71021.0 5.4 21.014.722.0
2014-Oct-17 08:33N 31°14' E 122°03'37 8.6
2014-Oct-17 04:16N 31°41' E 122°33'9817.0
2014-Oct-16 22:29N 33°18' E 122°44'1617.1
2014-Oct-16 21:33N 33°34' E 122°39'1717.3
2014-Oct-16 20:33N 33°51' E 122°37'5416.8
2014-Oct-16 17:20N 34°42' E 122°13'3717.1
2014-Oct-16 15:10N 35°07' E 121°40'1117.3
2014-Oct-16 14:33N 35°14' E 121°31'4017.2
2014-Oct-16 12:14N 35°42' E 120°55'623.8
2014-Oct-16 12:00N 35°42' E 120°48'1312.9 230 / 151023.0 5.4 19.014.221.0
2014-Oct-16 11:00N 35°54' E 120°42'   210 / 151023.0 5.4 18.0 9.221.0

Dump ship's entire track history